sensor_id;sensor_type;location;lat;lon;timestamp;pressure;altitude;pressure_sealevel;temperature
68012;BMP180;54794;48.348;7.878;2023-02-15T00:02:36;100521.00;;;2.90
68012;BMP180;54794;48.348;7.878;2023-02-15T00:09:59;100515.00;;;2.80
68012;BMP180;54794;48.348;7.878;2023-02-15T00:13:28;100494.00;;;2.90
68012;BMP180;54794;48.348;7.878;2023-02-15T00:17:03;100489.00;;;3.00
68012;BMP180;54794;48.348;7.878;2023-02-15T00:20:46;100498.00;;;2.60
68012;BMP180;54794;48.348;7.878;2023-02-15T00:24:14;100497.00;;;2.70
68012;BMP180;54794;48.348;7.878;2023-02-15T00:27:34;100497.00;;;2.70
68012;BMP180;54794;48.348;7.878;2023-02-15T00:30:37;100496.00;;;2.70
68012;BMP180;54794;48.348;7.878;2023-02-15T00:33:42;100500.00;;;2.80
68012;BMP180;54794;48.348;7.878;2023-02-15T00:40:25;100500.00;;;2.80
68012;BMP180;54794;48.348;7.878;2023-02-15T00:51:14;100503.00;;;2.30
68012;BMP180;54794;48.348;7.878;2023-02-15T00:54:47;100505.00;;;2.50
68012;BMP180;54794;48.348;7.878;2023-02-15T00:58:02;100506.00;;;2.30
68012;BMP180;54794;48.348;7.878;2023-02-15T01:01:52;100481.00;;;2.50
68012;BMP180;54794;48.348;7.878;2023-02-15T01:28:08;100487.00;;;2.40
68012;BMP180;54794;48.348;7.878;2023-02-15T01:39:35;100497.00;;;2.60
68012;BMP180;54794;48.348;7.878;2023-02-15T01:54:35;100475.00;;;2.80
68012;BMP180;54794;48.348;7.878;2023-02-15T02:01:12;100490.00;;;2.40
68012;BMP180;54794;48.348;7.878;2023-02-15T02:08:54;100470.00;;;2.60
68012;BMP180;54794;48.348;7.878;2023-02-15T02:12:18;100468.00;;;2.50
68012;BMP180;54794;48.348;7.878;2023-02-15T02:43:32;100468.00;;;2.10
68012;BMP180;54794;48.348;7.878;2023-02-15T02:46:24;100459.00;;;2.00
68012;BMP180;54794;48.348;7.878;2023-02-15T02:48:54;100459.00;;;1.90
68012;BMP180;54794;48.348;7.878;2023-02-15T02:51:24;100468.00;;;2.10
68012;BMP180;54794;48.348;7.878;2023-02-15T02:54:42;100455.00;;;2.30
68012;BMP180;54794;48.348;7.878;2023-02-15T03:06:36;100443.00;;;2.40
68012;BMP180;54794;48.348;7.878;2023-02-15T03:10:02;100442.00;;;2.50
68012;BMP180;54794;48.348;7.878;2023-02-15T03:17:42;100449.00;;;2.50
68012;BMP180;54794;48.348;7.878;2023-02-15T03:21:17;100439.00;;;2.50
68012;BMP180;54794;48.348;7.878;2023-02-15T03:25:21;100452.00;;;2.50
68012;BMP180;54794;48.348;7.878;2023-02-15T03:29:16;100452.00;;;2.50
68012;BMP180;54794;48.348;7.878;2023-02-15T03:32:11;100450.00;;;2.50
68012;BMP180;54794;48.348;7.878;2023-02-15T03:48:08;100461.00;;;2.10
68012;BMP180;54794;48.348;7.878;2023-02-15T03:51:56;100455.00;;;2.20
68012;BMP180;54794;48.348;7.878;2023-02-15T03:55:26;100462.00;;;2.00
68012;BMP180;54794;48.348;7.878;2023-02-15T03:59:22;100441.00;;;2.30
68012;BMP180;54794;48.348;7.878;2023-02-15T04:07:29;100451.00;;;2.20
68012;BMP180;54794;48.348;7.878;2023-02-15T04:10:31;100454.00;;;2.30
68012;BMP180;54794;48.348;7.878;2023-02-15T04:14:19;100445.00;;;2.00
68012;BMP180;54794;48.348;7.878;2023-02-15T04:18:02;100440.00;;;2.10
68012;BMP180;54794;48.348;7.878;2023-02-15T04:25:47;100440.00;;;2.10
68012;BMP180;54794;48.348;7.878;2023-02-15T04:37:30;100430.00;;;2.10
68012;BMP180;54794;48.348;7.878;2023-02-15T04:48:31;100431.00;;;2.00
68012;BMP180;54794;48.348;7.878;2023-02-15T04:56:04;100448.00;;;2.00
68012;BMP180;54794;48.348;7.878;2023-02-15T05:03:07;100431.00;;;2.10
68012;BMP180;54794;48.348;7.878;2023-02-15T05:22:41;100446.00;;;1.40
68012;BMP180;54794;48.348;7.878;2023-02-15T05:34:48;100443.00;;;1.90
68012;BMP180;54794;48.348;7.878;2023-02-15T05:38:14;100455.00;;;1.90
68012;BMP180;54794;48.348;7.878;2023-02-15T05:42:11;100440.00;;;1.60
68012;BMP180;54794;48.348;7.878;2023-02-15T05:46:21;100442.00;;;1.60
68012;BMP180;54794;48.348;7.878;2023-02-15T06:05:18;100457.00;;;1.40
68012;BMP180;54794;48.348;7.878;2023-02-15T06:12:26;100452.00;;;1.80
68012;BMP180;54794;48.348;7.878;2023-02-15T06:15:45;100450.00;;;1.80
68012;BMP180;54794;48.348;7.878;2023-02-15T06:18:39;100465.00;;;1.90
68012;BMP180;54794;48.348;7.878;2023-02-15T06:21:32;100462.00;;;1.70
68012;BMP180;54794;48.348;7.878;2023-02-15T06:25:08;100473.00;;;1.50
68012;BMP180;54794;48.348;7.878;2023-02-15T06:44:16;100472.00;;;1.90
68012;BMP180;54794;48.348;7.878;2023-02-15T06:47:21;100470.00;;;1.90
68012;BMP180;54794;48.348;7.878;2023-02-15T06:50:19;100480.00;;;1.80
68012;BMP180;54794;48.348;7.878;2023-02-15T06:53:57;100474.00;;;1.90
68012;BMP180;54794;48.348;7.878;2023-02-15T06:56:48;100479.00;;;1.90
68012;BMP180;54794;48.348;7.878;2023-02-15T06:59:53;100480.00;;;1.80
68012;BMP180;54794;48.348;7.878;2023-02-15T07:03:25;100485.00;;;1.80
68012;BMP180;54794;48.348;7.878;2023-02-15T07:06:41;100475.00;;;1.90
68012;BMP180;54794;48.348;7.878;2023-02-15T07:09:41;100481.00;;;1.90
68012;BMP180;54794;48.348;7.878;2023-02-15T07:12:16;100482.00;;;1.10
68012;BMP180;54794;48.348;7.878;2023-02-15T07:15:29;100482.00;;;1.50
68012;BMP180;54794;48.348;7.878;2023-02-15T07:17:59;100485.00;;;1.60
68012;BMP180;54794;48.348;7.878;2023-02-15T07:20:55;100471.00;;;1.60
68012;BMP180;54794;48.348;7.878;2023-02-15T07:23:38;100471.00;;;1.80
68012;BMP180;54794;48.348;7.878;2023-02-15T07:26:07;100468.00;;;1.80
68012;BMP180;54794;48.348;7.878;2023-02-15T07:29:18;100476.00;;;1.80
68012;BMP180;54794;48.348;7.878;2023-02-15T07:32:04;100466.00;;;1.80
68012;BMP180;54794;48.348;7.878;2023-02-15T07:35:22;100488.00;;;1.20
68012;BMP180;54794;48.348;7.878;2023-02-15T07:46:15;100458.00;;;1.80
68012;BMP180;54794;48.348;7.878;2023-02-15T07:52:58;100464.00;;;2.00
68012;BMP180;54794;48.348;7.878;2023-02-15T07:56:19;100468.00;;;2.10
68012;BMP180;54794;48.348;7.878;2023-02-15T07:59:06;100456.00;;;2.00
68012;BMP180;54794;48.348;7.878;2023-02-15T08:01:56;100451.00;;;2.00
68012;BMP180;54794;48.348;7.878;2023-02-15T08:04:36;100453.00;;;1.80
68012;BMP180;54794;48.348;7.878;2023-02-15T08:07:12;100461.00;;;1.80
68012;BMP180;54794;48.348;7.878;2023-02-15T08:09:50;100443.00;;;1.80
68012;BMP180;54794;48.348;7.878;2023-02-15T08:12:25;100445.00;;;2.10
68012;BMP180;54794;48.348;7.878;2023-02-15T08:15:07;100431.00;;;2.10
68012;BMP180;54794;48.348;7.878;2023-02-15T08:17:45;100447.00;;;2.10
68012;BMP180;54794;48.348;7.878;2023-02-15T08:20:21;100446.00;;;2.10
68012;BMP180;54794;48.348;7.878;2023-02-15T08:22:53;100454.00;;;2.10
68012;BMP180;54794;48.348;7.878;2023-02-15T08:25:44;100453.00;;;2.30
68012;BMP180;54794;48.348;7.878;2023-02-15T08:28:43;100457.00;;;2.10
68012;BMP180;54794;48.348;7.878;2023-02-15T08:31:29;100468.00;;;2.20
68012;BMP180;54794;48.348;7.878;2023-02-15T08:34:17;100450.00;;;2.20
68012;BMP180;54794;48.348;7.878;2023-02-15T08:36:51;100448.00;;;2.30
68012;BMP180;54794;48.348;7.878;2023-02-15T08:39:25;100442.00;;;2.00
68012;BMP180;54794;48.348;7.878;2023-02-15T08:41:58;100449.00;;;2.20
68012;BMP180;54794;48.348;7.878;2023-02-15T08:44:36;100451.00;;;1.90
68012;BMP180;54794;48.348;7.878;2023-02-15T08:47:11;100439.00;;;1.50
68012;BMP180;54794;48.348;7.878;2023-02-15T08:49:43;100435.00;;;1.90
68012;BMP180;54794;48.348;7.878;2023-02-15T08:52:17;100426.00;;;2.30
68012;BMP180;54794;48.348;7.878;2023-02-15T08:54:49;100440.00;;;2.30
68012;BMP180;54794;48.348;7.878;2023-02-15T08:58:22;100430.00;;;2.40
68012;BMP180;54794;48.348;7.878;2023-02-15T09:00:29;100426.00;;;2.00
68012;BMP180;54794;48.348;7.878;2023-02-15T09:03:03;100407.00;;;2.40
68012;BMP180;54794;48.348;7.878;2023-02-15T09:06:13;100406.00;;;2.60
68012;BMP180;54794;48.348;7.878;2023-02-15T09:08:59;100413.00;;;2.80
68012;BMP180;54794;48.348;7.878;2023-02-15T09:11:48;100417.00;;;2.70
68012;BMP180;54794;48.348;7.878;2023-02-15T09:14:37;100419.00;;;2.40
68012;BMP180;54794;48.348;7.878;2023-02-15T09:17:20;100433.00;;;1.70
68012;BMP180;54794;48.348;7.878;2023-02-15T09:19:55;100420.00;;;2.00
68012;BMP180;54794;48.348;7.878;2023-02-15T09:22:33;100415.00;;;2.10
68012;BMP180;54794;48.348;7.878;2023-02-15T09:25:06;100422.00;;;1.90
68012;BMP180;54794;48.348;7.878;2023-02-15T09:27:38;100421.00;;;1.70
68012;BMP180;54794;48.348;7.878;2023-02-15T09:30:28;100408.00;;;1.60
68012;BMP180;54794;48.348;7.878;2023-02-15T09:33:07;100408.00;;;1.60
68012;BMP180;54794;48.348;7.878;2023-02-15T09:35:48;100413.00;;;2.10
68012;BMP180;54794;48.348;7.878;2023-02-15T09:38:23;100411.00;;;1.80
68012;BMP180;54794;48.348;7.878;2023-02-15T10:04:48;100438.00;;;2.20
68012;BMP180;54794;48.348;7.878;2023-02-15T10:10:55;100425.00;;;2.80
68012;BMP180;54794;48.348;7.878;2023-02-15T10:13:55;100434.00;;;2.50
68012;BMP180;54794;48.348;7.878;2023-02-15T10:26:11;100422.00;;;2.80
68012;BMP180;54794;48.348;7.878;2023-02-15T10:28:52;100414.00;;;2.60
68012;BMP180;54794;48.348;7.878;2023-02-15T10:31:47;100406.00;;;2.90
68012;BMP180;54794;48.348;7.878;2023-02-15T10:34:37;100405.00;;;3.10
68012;BMP180;54794;48.348;7.878;2023-02-15T10:47:09;100386.00;;;3.00
68012;BMP180;54794;48.348;7.878;2023-02-15T10:52:42;100384.00;;;3.00
68012;BMP180;54794;48.348;7.878;2023-02-15T11:01:40;100378.00;;;3.00
68012;BMP180;54794;48.348;7.878;2023-02-15T11:06:42;100379.00;;;2.50
68012;BMP180;54794;48.348;7.878;2023-02-15T11:09:17;100371.00;;;3.20
68012;BMP180;54794;48.348;7.878;2023-02-15T11:11:56;100377.00;;;3.20
68012;BMP180;54794;48.348;7.878;2023-02-15T11:14:52;100357.00;;;3.70
68012;BMP180;54794;48.348;7.878;2023-02-15T11:17:37;100359.00;;;3.50
68012;BMP180;54794;48.348;7.878;2023-02-15T11:20:37;100354.00;;;3.30
68012;BMP180;54794;48.348;7.878;2023-02-15T11:23:14;100343.00;;;3.30
68012;BMP180;54794;48.348;7.878;2023-02-15T11:25:48;100345.00;;;3.00
68012;BMP180;54794;48.348;7.878;2023-02-15T11:28:33;100337.00;;;2.90
68012;BMP180;54794;48.348;7.878;2023-02-15T11:31:13;100321.00;;;3.60
68012;BMP180;54794;48.348;7.878;2023-02-15T11:33:46;100325.00;;;3.40
68012;BMP180;54794;48.348;7.878;2023-02-15T11:36:26;100322.00;;;3.60
68012;BMP180;54794;48.348;7.878;2023-02-15T11:39:10;100320.00;;;4.10
68012;BMP180;54794;48.348;7.878;2023-02-15T11:41:43;100308.00;;;4.20
68012;BMP180;54794;48.348;7.878;2023-02-15T11:44:22;100301.00;;;4.30
68012;BMP180;54794;48.348;7.878;2023-02-15T11:46:50;100304.00;;;4.40
68012;BMP180;54794;48.348;7.878;2023-02-15T11:49:34;100297.00;;;4.60
68012;BMP180;54794;48.348;7.878;2023-02-15T11:52:08;100303.00;;;3.80
68012;BMP180;54794;48.348;7.878;2023-02-15T11:54:42;100306.00;;;4.00
68012;BMP180;54794;48.348;7.878;2023-02-15T11:57:38;100300.00;;;3.60
68012;BMP180;54794;48.348;7.878;2023-02-15T12:00:16;100298.00;;;4.00
68012;BMP180;54794;48.348;7.878;2023-02-15T12:02:52;100288.00;;;4.20
68012;BMP180;54794;48.348;7.878;2023-02-15T12:05:24;100293.00;;;4.30
68012;BMP180;54794;48.348;7.878;2023-02-15T12:08:03;100284.00;;;4.40
68012;BMP180;54794;48.348;7.878;2023-02-15T12:11:05;100275.00;;;4.50
68012;BMP180;54794;48.348;7.878;2023-02-15T12:13:34;100272.00;;;4.10
68012;BMP180;54794;48.348;7.878;2023-02-15T12:16:07;100273.00;;;4.30
68012;BMP180;54794;48.348;7.878;2023-02-15T12:18:42;100261.00;;;4.50
68012;BMP180;54794;48.348;7.878;2023-02-15T12:21:15;100261.00;;;4.20
68012;BMP180;54794;48.348;7.878;2023-02-15T12:23:54;100258.00;;;4.20
68012;BMP180;54794;48.348;7.878;2023-02-15T12:26:34;100256.00;;;4.40
68012;BMP180;54794;48.348;7.878;2023-02-15T12:29:16;100260.00;;;4.20
68012;BMP180;54794;48.348;7.878;2023-02-15T12:31:49;100258.00;;;4.50
68012;BMP180;54794;48.348;7.878;2023-02-15T12:37:02;100258.00;;;4.20
68012;BMP180;54794;48.348;7.878;2023-02-15T12:39:34;100261.00;;;4.00
68012;BMP180;54794;48.348;7.878;2023-02-15T12:42:14;100253.00;;;3.70
68012;BMP180;54794;48.348;7.878;2023-02-15T12:44:54;100245.00;;;4.40
68012;BMP180;54794;48.348;7.878;2023-02-15T12:47:22;100241.00;;;4.40
68012;BMP180;54794;48.348;7.878;2023-02-15T12:50:24;100240.00;;;4.10
68012;BMP180;54794;48.348;7.878;2023-02-15T12:53:15;100240.00;;;4.50
68012;BMP180;54794;48.348;7.878;2023-02-15T12:56:02;100244.00;;;3.80
68012;BMP180;54794;48.348;7.878;2023-02-15T12:58:38;100234.00;;;4.30
68012;BMP180;54794;48.348;7.878;2023-02-15T13:03:57;100219.00;;;4.70
68012;BMP180;54794;48.348;7.878;2023-02-15T13:06:26;100222.00;;;4.50
68012;BMP180;54794;48.348;7.878;2023-02-15T13:09:19;100225.00;;;4.20
68012;BMP180;54794;48.348;7.878;2023-02-15T13:11:47;100215.00;;;3.90
68012;BMP180;54794;48.348;7.878;2023-02-15T13:14:33;100220.00;;;4.30
68012;BMP180;54794;48.348;7.878;2023-02-15T13:17:03;100227.00;;;4.10
68012;BMP180;54794;48.348;7.878;2023-02-15T13:19:42;100217.00;;;4.60
68012;BMP180;54794;48.348;7.878;2023-02-15T13:22:41;100216.00;;;4.60
68012;BMP180;54794;48.348;7.878;2023-02-15T13:25:18;100214.00;;;4.90
68012;BMP180;54794;48.348;7.878;2023-02-15T13:27:57;100207.00;;;4.40
68012;BMP180;54794;48.348;7.878;2023-02-15T13:30:28;100218.00;;;4.30
68012;BMP180;54794;48.348;7.878;2023-02-15T13:33:31;100211.00;;;4.90
68012;BMP180;54794;48.348;7.878;2023-02-15T13:36:11;100205.00;;;4.50
68012;BMP180;54794;48.348;7.878;2023-02-15T13:39:20;100204.00;;;4.50
68012;BMP180;54794;48.348;7.878;2023-02-15T13:45:36;100203.00;;;4.40
68012;BMP180;54794;48.348;7.878;2023-02-15T13:48:24;100202.00;;;4.40
68012;BMP180;54794;48.348;7.878;2023-02-15T13:55:03;100184.00;;;5.10
68012;BMP180;54794;48.348;7.878;2023-02-15T13:58:13;100182.00;;;4.90
68012;BMP180;54794;48.348;7.878;2023-02-15T14:12:29;100185.00;;;5.10
68012;BMP180;54794;48.348;7.878;2023-02-15T14:18:39;100181.00;;;4.90
68012;BMP180;54794;48.348;7.878;2023-02-15T14:21:32;100175.00;;;5.00
68012;BMP180;54794;48.348;7.878;2023-02-15T14:27:59;100192.00;;;4.70
68012;BMP180;54794;48.348;7.878;2023-02-15T14:30:38;100179.00;;;4.50
68012;BMP180;54794;48.348;7.878;2023-02-15T14:33:38;100187.00;;;4.60
68012;BMP180;54794;48.348;7.878;2023-02-15T14:36:13;100183.00;;;4.70
68012;BMP180;54794;48.348;7.878;2023-02-15T14:39:26;100190.00;;;4.60
68012;BMP180;54794;48.348;7.878;2023-02-15T14:42:53;100189.00;;;4.70
68012;BMP180;54794;48.348;7.878;2023-02-15T14:45:43;100184.00;;;4.90
68012;BMP180;54794;48.348;7.878;2023-02-15T14:48:41;100194.00;;;4.80
68012;BMP180;54794;48.348;7.878;2023-02-15T14:51:10;100194.00;;;4.60
68012;BMP180;54794;48.348;7.878;2023-02-15T14:53:57;100187.00;;;4.60
68012;BMP180;54794;48.348;7.878;2023-02-15T14:56:26;100186.00;;;4.40
68012;BMP180;54794;48.348;7.878;2023-02-15T15:01:35;100186.00;;;4.60
68012;BMP180;54794;48.348;7.878;2023-02-15T15:04:08;100195.00;;;4.60
68012;BMP180;54794;48.348;7.878;2023-02-15T15:06:40;100188.00;;;4.40
68012;BMP180;54794;48.348;7.878;2023-02-15T15:09:25;100188.00;;;4.70
68012;BMP180;54794;48.348;7.878;2023-02-15T15:14:52;100202.00;;;4.40
68012;BMP180;54794;48.348;7.878;2023-02-15T15:31:32;100188.00;;;4.60
68012;BMP180;54794;48.348;7.878;2023-02-15T15:35:33;100196.00;;;4.70
68012;BMP180;54794;48.348;7.878;2023-02-15T15:38:02;100190.00;;;4.40
68012;BMP180;54794;48.348;7.878;2023-02-15T15:47:01;100188.00;;;4.60
68012;BMP180;54794;48.348;7.878;2023-02-15T15:49:34;100187.00;;;4.80
68012;BMP180;54794;48.348;7.878;2023-02-15T15:52:20;100188.00;;;4.40
68012;BMP180;54794;48.348;7.878;2023-02-15T15:54:56;100191.00;;;4.60
68012;BMP180;54794;48.348;7.878;2023-02-15T15:57:29;100186.00;;;4.70
68012;BMP180;54794;48.348;7.878;2023-02-15T15:59:57;100183.00;;;4.70
68012;BMP180;54794;48.348;7.878;2023-02-15T16:02:28;100186.00;;;4.50
68012;BMP180;54794;48.348;7.878;2023-02-15T16:05:08;100197.00;;;4.20
68012;BMP180;54794;48.348;7.878;2023-02-15T16:07:36;100199.00;;;4.30
68012;BMP180;54794;48.348;7.878;2023-02-15T16:10:06;100194.00;;;4.50
68012;BMP180;54794;48.348;7.878;2023-02-15T16:12:47;100186.00;;;4.70
68012;BMP180;54794;48.348;7.878;2023-02-15T16:15:24;100194.00;;;4.60
68012;BMP180;54794;48.348;7.878;2023-02-15T16:17:58;100180.00;;;4.60
68012;BMP180;54794;48.348;7.878;2023-02-15T16:20:29;100184.00;;;4.50
68012;BMP180;54794;48.348;7.878;2023-02-15T16:23:16;100182.00;;;4.50
68012;BMP180;54794;48.348;7.878;2023-02-15T16:28:31;100180.00;;;4.30
68012;BMP180;54794;48.348;7.878;2023-02-15T16:31:15;100183.00;;;4.20
68012;BMP180;54794;48.348;7.878;2023-02-15T16:33:44;100184.00;;;4.50
68012;BMP180;54794;48.348;7.878;2023-02-15T16:36:28;100194.00;;;4.40
68012;BMP180;54794;48.348;7.878;2023-02-15T16:39:09;100192.00;;;4.40
68012;BMP180;54794;48.348;7.878;2023-02-15T16:41:37;100185.00;;;4.50
68012;BMP180;54794;48.348;7.878;2023-02-15T16:44:17;100197.00;;;4.70
68012;BMP180;54794;48.348;7.878;2023-02-15T16:46:49;100196.00;;;4.40
68012;BMP180;54794;48.348;7.878;2023-02-15T16:49:25;100206.00;;;4.40
68012;BMP180;54794;48.348;7.878;2023-02-15T16:52:03;100202.00;;;4.60
68012;BMP180;54794;48.348;7.878;2023-02-15T16:54:35;100205.00;;;4.60
68012;BMP180;54794;48.348;7.878;2023-02-15T16:57:03;100203.00;;;4.60
68012;BMP180;54794;48.348;7.878;2023-02-15T16:59:41;100198.00;;;4.50
68012;BMP180;54794;48.348;7.878;2023-02-15T17:02:24;100212.00;;;4.50
68012;BMP180;54794;48.348;7.878;2023-02-15T17:07:51;100214.00;;;4.20
68012;BMP180;54794;48.348;7.878;2023-02-15T17:10:38;100209.00;;;4.30
68012;BMP180;54794;48.348;7.878;2023-02-15T17:13:17;100205.00;;;4.30
68012;BMP180;54794;48.348;7.878;2023-02-15T17:16:31;100212.00;;;3.90
68012;BMP180;54794;48.348;7.878;2023-02-15T17:19:14;100217.00;;;3.40
68012;BMP180;54794;48.348;7.878;2023-02-15T17:22:23;100207.00;;;3.70
68012;BMP180;54794;48.348;7.878;2023-02-15T17:24:44;100200.00;;;3.90
68012;BMP180;54794;48.348;7.878;2023-02-15T17:27:29;100202.00;;;3.80
68012;BMP180;54794;48.348;7.878;2023-02-15T17:30:14;100206.00;;;3.80
68012;BMP180;54794;48.348;7.878;2023-02-15T17:33:25;100210.00;;;3.90
68012;BMP180;54794;48.348;7.878;2023-02-15T17:36:24;100210.00;;;3.60
68012;BMP180;54794;48.348;7.878;2023-02-15T17:41:35;100221.00;;;3.80
68012;BMP180;54794;48.348;7.878;2023-02-15T17:44:04;100226.00;;;3.60
68012;BMP180;54794;48.348;7.878;2023-02-15T17:46:38;100222.00;;;3.60
68012;BMP180;54794;48.348;7.878;2023-02-15T17:49:06;100213.00;;;3.70
68012;BMP180;54794;48.348;7.878;2023-02-15T17:51:37;100214.00;;;3.70
68012;BMP180;54794;48.348;7.878;2023-02-15T17:54:04;100215.00;;;3.70
68012;BMP180;54794;48.348;7.878;2023-02-15T17:56:57;100206.00;;;3.60
68012;BMP180;54794;48.348;7.878;2023-02-15T17:59:31;100208.00;;;3.70
68012;BMP180;54794;48.348;7.878;2023-02-15T18:01:58;100206.00;;;3.40
68012;BMP180;54794;48.348;7.878;2023-02-15T18:04:44;100205.00;;;3.40
68012;BMP180;54794;48.348;7.878;2023-02-15T18:07:29;100221.00;;;3.20
68012;BMP180;54794;48.348;7.878;2023-02-15T18:10:18;100208.00;;;3.50
68012;BMP180;54794;48.348;7.878;2023-02-15T18:13:03;100215.00;;;3.50
68012;BMP180;54794;48.348;7.878;2023-02-15T18:15:34;100205.00;;;3.20
68012;BMP180;54794;48.348;7.878;2023-02-15T18:18:01;100202.00;;;3.10
68012;BMP180;54794;48.348;7.878;2023-02-15T18:20:35;100199.00;;;3.30
68012;BMP180;54794;48.348;7.878;2023-02-15T18:23:02;100194.00;;;3.30
68012;BMP180;54794;48.348;7.878;2023-02-15T18:25:29;100188.00;;;3.30
68012;BMP180;54794;48.348;7.878;2023-02-15T18:27:56;100177.00;;;3.30
68012;BMP180;54794;48.348;7.878;2023-02-15T18:30:24;100192.00;;;3.20
68012;BMP180;54794;48.348;7.878;2023-02-15T18:32:55;100183.00;;;2.90
68012;BMP180;54794;48.348;7.878;2023-02-15T18:35:27;100186.00;;;2.90
68012;BMP180;54794;48.348;7.878;2023-02-15T18:37:57;100175.00;;;3.20
68012;BMP180;54794;48.348;7.878;2023-02-15T18:40:30;100173.00;;;3.10
68012;BMP180;54794;48.348;7.878;2023-02-15T18:42:57;100168.00;;;2.90
68012;BMP180;54794;48.348;7.878;2023-02-15T18:45:42;100175.00;;;2.70
68012;BMP180;54794;48.348;7.878;2023-02-15T18:48:14;100183.00;;;2.40
68012;BMP180;54794;48.348;7.878;2023-02-15T18:50:52;100191.00;;;2.50
68012;BMP180;54794;48.348;7.878;2023-02-15T18:53:20;100189.00;;;2.50
68012;BMP180;54794;48.348;7.878;2023-02-15T18:55:50;100198.00;;;2.80
68012;BMP180;54794;48.348;7.878;2023-02-15T18:58:24;100212.00;;;3.00
68012;BMP180;54794;48.348;7.878;2023-02-15T19:00:53;100208.00;;;3.00
68012;BMP180;54794;48.348;7.878;2023-02-15T19:03:37;100202.00;;;3.20
68012;BMP180;54794;48.348;7.878;2023-02-15T19:06:04;100199.00;;;3.40
68012;BMP180;54794;48.348;7.878;2023-02-15T19:08:33;100203.00;;;3.00
68012;BMP180;54794;48.348;7.878;2023-02-15T19:11:00;100206.00;;;2.60
68012;BMP180;54794;48.348;7.878;2023-02-15T19:13:27;100220.00;;;2.20
68012;BMP180;54794;48.348;7.878;2023-02-15T19:15:57;100231.00;;;1.90
68012;BMP180;54794;48.348;7.878;2023-02-15T19:18:29;100224.00;;;2.20
68012;BMP180;54794;48.348;7.878;2023-02-15T19:21:10;100223.00;;;2.30
68012;BMP180;54794;48.348;7.878;2023-02-15T19:31:10;100214.00;;;2.70
68012;BMP180;54794;48.348;7.878;2023-02-15T19:33:48;100226.00;;;2.20
68012;BMP180;54794;48.348;7.878;2023-02-15T19:36:27;100223.00;;;2.40
68012;BMP180;54794;48.348;7.878;2023-02-15T19:39:38;100226.00;;;2.60
68012;BMP180;54794;48.348;7.878;2023-02-15T19:42:31;100219.00;;;2.60
68012;BMP180;54794;48.348;7.878;2023-02-15T19:45:00;100247.00;;;2.40
68012;BMP180;54794;48.348;7.878;2023-02-15T19:47:30;100231.00;;;2.40
68012;BMP180;54794;48.348;7.878;2023-02-15T19:50:18;100241.00;;;2.60
68012;BMP180;54794;48.348;7.878;2023-02-15T19:52:55;100251.00;;;2.30
68012;BMP180;54794;48.348;7.878;2023-02-15T19:55:32;100230.00;;;2.60
68012;BMP180;54794;48.348;7.878;2023-02-15T19:58:11;100222.00;;;2.70
68012;BMP180;54794;48.348;7.878;2023-02-15T20:00:48;100236.00;;;2.50
68012;BMP180;54794;48.348;7.878;2023-02-15T20:06:14;100237.00;;;2.20
68012;BMP180;54794;48.348;7.878;2023-02-15T20:09:01;100235.00;;;2.30
68012;BMP180;54794;48.348;7.878;2023-02-15T20:11:34;100223.00;;;2.50
68012;BMP180;54794;48.348;7.878;2023-02-15T20:14:14;100213.00;;;2.60
68012;BMP180;54794;48.348;7.878;2023-02-15T20:16:44;100212.00;;;2.90
68012;BMP180;54794;48.348;7.878;2023-02-15T20:19:32;100219.00;;;2.90
68012;BMP180;54794;48.348;7.878;2023-02-15T20:22:25;100199.00;;;3.00
68012;BMP180;54794;48.348;7.878;2023-02-15T20:25:09;100209.00;;;2.80
68012;BMP180;54794;48.348;7.878;2023-02-15T20:27:39;100197.00;;;2.70
68012;BMP180;54794;48.348;7.878;2023-02-15T20:30:29;100207.00;;;2.70
68012;BMP180;54794;48.348;7.878;2023-02-15T20:33:02;100192.00;;;2.50
68012;BMP180;54794;48.348;7.878;2023-02-15T20:35:37;100195.00;;;2.40
68012;BMP180;54794;48.348;7.878;2023-02-15T20:38:28;100189.00;;;2.20
68012;BMP180;54794;48.348;7.878;2023-02-15T20:40:59;100195.00;;;2.10
68012;BMP180;54794;48.348;7.878;2023-02-15T20:43:46;100194.00;;;2.20
68012;BMP180;54794;48.348;7.878;2023-02-15T20:46:32;100202.00;;;2.20
68012;BMP180;54794;48.348;7.878;2023-02-15T20:49:20;100211.00;;;1.90
68012;BMP180;54794;48.348;7.878;2023-02-15T20:56:22;100213.00;;;2.30
68012;BMP180;54794;48.348;7.878;2023-02-15T20:58:57;100219.00;;;2.50
68012;BMP180;54794;48.348;7.878;2023-02-15T21:01:40;100214.00;;;2.20
68012;BMP180;54794;48.348;7.878;2023-02-15T21:04:23;100228.00;;;2.20
68012;BMP180;54794;48.348;7.878;2023-02-15T21:06:55;100225.00;;;2.20
68012;BMP180;54794;48.348;7.878;2023-02-15T21:09:30;100227.00;;;2.20
68012;BMP180;54794;48.348;7.878;2023-02-15T21:12:02;100233.00;;;2.10
68012;BMP180;54794;48.348;7.878;2023-02-15T21:14:53;100241.00;;;2.00
68012;BMP180;54794;48.348;7.878;2023-02-15T21:17:31;100233.00;;;2.20
68012;BMP180;54794;48.348;7.878;2023-02-15T21:20:01;100228.00;;;2.20
68012;BMP180;54794;48.348;7.878;2023-02-15T21:22:47;100231.00;;;2.40
68012;BMP180;54794;48.348;7.878;2023-02-15T21:25:24;100229.00;;;2.50
68012;BMP180;54794;48.348;7.878;2023-02-15T21:28:16;100238.00;;;2.20
68012;BMP180;54794;48.348;7.878;2023-02-15T21:30:54;100239.00;;;2.40
68012;BMP180;54794;48.348;7.878;2023-02-15T21:33:37;100235.00;;;2.10
68012;BMP180;54794;48.348;7.878;2023-02-15T21:36:12;100247.00;;;2.10
68012;BMP180;54794;48.348;7.878;2023-02-15T21:38:42;100243.00;;;2.20
68012;BMP180;54794;48.348;7.878;2023-02-15T21:41:21;100250.00;;;2.20
68012;BMP180;54794;48.348;7.878;2023-02-15T21:44:20;100243.00;;;2.10
68012;BMP180;54794;48.348;7.878;2023-02-15T21:47:25;100240.00;;;2.30
68012;BMP180;54794;48.348;7.878;2023-02-15T21:50:23;100238.00;;;2.30
68012;BMP180;54794;48.348;7.878;2023-02-15T21:53:17;100232.00;;;2.30
68012;BMP180;54794;48.348;7.878;2023-02-15T21:56:02;100234.00;;;2.10
68012;BMP180;54794;48.348;7.878;2023-02-15T21:58:40;100228.00;;;2.10
68012;BMP180;54794;48.348;7.878;2023-02-15T22:01:28;100238.00;;;2.10
68012;BMP180;54794;48.348;7.878;2023-02-15T22:04:01;100221.00;;;2.40
68012;BMP180;54794;48.348;7.878;2023-02-15T22:06:33;100225.00;;;2.40
68012;BMP180;54794;48.348;7.878;2023-02-15T22:09:17;100221.00;;;2.50
68012;BMP180;54794;48.348;7.878;2023-02-15T22:11:59;100218.00;;;2.40
68012;BMP180;54794;48.348;7.878;2023-02-15T22:14:42;100214.00;;;2.50